sensor_id;sensor_type;location;lat;lon;timestamp;P1;durP1;ratioP1;P2;durP2;ratioP2
64653;SDS011;51065;48.884;12.598;2023-03-23T00:04:52;12.38;;;4.78;;
64653;SDS011;51065;48.884;12.598;2023-03-23T00:07:19;14.50;;;4.80;;
64653;SDS011;51065;48.884;12.598;2023-03-23T00:09:52;10.27;;;4.38;;
64653;SDS011;51065;48.884;12.598;2023-03-23T00:12:23;13.25;;;4.10;;
64653;SDS011;51065;48.884;12.598;2023-03-23T00:14:54;14.23;;;4.55;;
64653;SDS011;51065;48.884;12.598;2023-03-23T00:17:20;10.00;;;4.40;;
64653;SDS011;51065;48.884;12.598;2023-03-23T00:19:46;12.18;;;4.70;;
64653;SDS011;51065;48.884;12.598;2023-03-23T00:22:13;10.85;;;4.90;;
64653;SDS011;51065;48.884;12.598;2023-03-23T00:24:39;10.57;;;4.43;;
64653;SDS011;51065;48.884;12.598;2023-03-23T00:27:05;10.52;;;4.60;;
64653;SDS011;51065;48.884;12.598;2023-03-23T00:29:31;11.35;;;4.72;;
64653;SDS011;51065;48.884;12.598;2023-03-23T00:31:57;13.77;;;5.28;;
64653;SDS011;51065;48.884;12.598;2023-03-23T00:34:23;10.18;;;4.40;;
64653;SDS011;51065;48.884;12.598;2023-03-23T00:36:50;11.50;;;4.55;;
64653;SDS011;51065;48.884;12.598;2023-03-23T00:39:18;12.52;;;4.95;;
64653;SDS011;51065;48.884;12.598;2023-03-23T00:41:44;10.93;;;4.72;;
64653;SDS011;51065;48.884;12.598;2023-03-23T00:44:11;12.68;;;4.90;;
64653;SDS011;51065;48.884;12.598;2023-03-23T00:46:45;12.45;;;4.25;;
64653;SDS011;51065;48.884;12.598;2023-03-23T00:49:13;11.77;;;4.55;;
64653;SDS011;51065;48.884;12.598;2023-03-23T00:51:41;11.05;;;4.82;;
64653;SDS011;51065;48.884;12.598;2023-03-23T00:54:07;12.38;;;4.80;;
64653;SDS011;51065;48.884;12.598;2023-03-23T00:56:33;11.93;;;4.93;;
64653;SDS011;51065;48.884;12.598;2023-03-23T00:58:59;12.38;;;5.10;;
64653;SDS011;51065;48.884;12.598;2023-03-23T01:01:24;11.48;;;5.25;;
64653;SDS011;51065;48.884;12.598;2023-03-23T01:03:50;12.52;;;4.75;;
64653;SDS011;51065;48.884;12.598;2023-03-23T01:06:18;12.82;;;5.03;;
64653;SDS011;51065;48.884;12.598;2023-03-23T01:08:43;14.18;;;5.20;;
64653;SDS011;51065;48.884;12.598;2023-03-23T01:11:13;11.63;;;5.45;;
64653;SDS011;51065;48.884;12.598;2023-03-23T01:13:40;12.73;;;5.38;;
64653;SDS011;51065;48.884;12.598;2023-03-23T01:16:10;12.57;;;5.60;;
64653;SDS011;51065;48.884;12.598;2023-03-23T01:18:36;11.73;;;5.10;;
64653;SDS011;51065;48.884;12.598;2023-03-23T01:21:05;10.50;;;4.60;;
64653;SDS011;51065;48.884;12.598;2023-03-23T01:23:33;11.30;;;4.93;;
64653;SDS011;51065;48.884;12.598;2023-03-23T01:26:02;10.32;;;5.03;;
64653;SDS011;51065;48.884;12.598;2023-03-23T01:28:29;16.92;;;4.65;;
64653;SDS011;51065;48.884;12.598;2023-03-23T01:30:59;13.02;;;5.65;;
64653;SDS011;51065;48.884;12.598;2023-03-23T01:33:25;13.07;;;5.85;;
64653;SDS011;51065;48.884;12.598;2023-03-23T01:35:51;17.67;;;5.97;;
64653;SDS011;51065;48.884;12.598;2023-03-23T01:38:16;14.50;;;5.55;;
64653;SDS011;51065;48.884;12.598;2023-03-23T01:40:42;13.45;;;5.53;;
64653;SDS011;51065;48.884;12.598;2023-03-23T01:43:11;12.98;;;5.88;;
64653;SDS011;51065;48.884;12.598;2023-03-23T01:45:39;14.85;;;5.82;;
64653;SDS011;51065;48.884;12.598;2023-03-23T01:50:40;16.90;;;7.03;;
64653;SDS011;51065;48.884;12.598;2023-03-23T01:53:12;15.27;;;6.10;;
64653;SDS011;51065;48.884;12.598;2023-03-23T01:55:38;13.60;;;5.57;;
64653;SDS011;51065;48.884;12.598;2023-03-23T01:58:06;12.90;;;5.72;;
64653;SDS011;51065;48.884;12.598;2023-03-23T02:00:34;15.35;;;6.00;;
64653;SDS011;51065;48.884;12.598;2023-03-23T02:03:00;12.50;;;5.28;;
64653;SDS011;51065;48.884;12.598;2023-03-23T02:05:28;14.23;;;5.50;;
64653;SDS011;51065;48.884;12.598;2023-03-23T02:07:58;15.77;;;5.63;;
64653;SDS011;51065;48.884;12.598;2023-03-23T02:10:28;11.80;;;5.22;;
64653;SDS011;51065;48.884;12.598;2023-03-23T02:12:56;13.15;;;5.00;;
64653;SDS011;51065;48.884;12.598;2023-03-23T02:15:22;13.55;;;5.60;;
64653;SDS011;51065;48.884;12.598;2023-03-23T02:17:53;13.68;;;5.55;;
64653;SDS011;51065;48.884;12.598;2023-03-23T02:20:27;14.15;;;5.93;;
64653;SDS011;51065;48.884;12.598;2023-03-23T02:23:13;13.13;;;5.30;;
64653;SDS011;51065;48.884;12.598;2023-03-23T02:25:58;11.35;;;5.32;;
64653;SDS011;51065;48.884;12.598;2023-03-23T02:28:48;13.00;;;5.35;;
64653;SDS011;51065;48.884;12.598;2023-03-23T02:34:25;14.75;;;5.68;;
64653;SDS011;51065;48.884;12.598;2023-03-23T02:39:43;14.48;;;5.65;;
64653;SDS011;51065;48.884;12.598;2023-03-23T02:42:15;14.55;;;5.22;;
64653;SDS011;51065;48.884;12.598;2023-03-23T02:44:43;12.90;;;5.68;;
64653;SDS011;51065;48.884;12.598;2023-03-23T02:47:12;12.73;;;5.50;;
64653;SDS011;51065;48.884;12.598;2023-03-23T02:49:43;14.20;;;5.82;;
64653;SDS011;51065;48.884;12.598;2023-03-23T02:52:14;11.60;;;5.60;;
64653;SDS011;51065;48.884;12.598;2023-03-23T02:54:44;11.23;;;5.20;;
64653;SDS011;51065;48.884;12.598;2023-03-23T02:57:12;12.68;;;5.20;;
64653;SDS011;51065;48.884;12.598;2023-03-23T02:59:38;13.82;;;6.25;;
64653;SDS011;51065;48.884;12.598;2023-03-23T03:02:14;14.35;;;5.47;;
64653;SDS011;51065;48.884;12.598;2023-03-23T03:04:52;14.48;;;5.85;;
64653;SDS011;51065;48.884;12.598;2023-03-23T03:07:31;14.73;;;5.88;;
64653;SDS011;51065;48.884;12.598;2023-03-23T03:10:08;13.65;;;5.40;;
64653;SDS011;51065;48.884;12.598;2023-03-23T03:12:50;13.63;;;6.45;;
64653;SDS011;51065;48.884;12.598;2023-03-23T03:15:45;12.35;;;5.32;;
64653;SDS011;51065;48.884;12.598;2023-03-23T03:18:25;14.10;;;5.68;;
64653;SDS011;51065;48.884;12.598;2023-03-23T03:20:56;13.50;;;5.70;;
64653;SDS011;51065;48.884;12.598;2023-03-23T03:23:27;12.63;;;5.22;;
64653;SDS011;51065;48.884;12.598;2023-03-23T03:25:54;13.55;;;5.30;;
64653;SDS011;51065;48.884;12.598;2023-03-23T03:28:22;14.20;;;5.43;;
64653;SDS011;51065;48.884;12.598;2023-03-23T03:30:53;12.15;;;5.15;;
64653;SDS011;51065;48.884;12.598;2023-03-23T03:33:22;12.57;;;5.18;;
64653;SDS011;51065;48.884;12.598;2023-03-23T03:35:53;14.45;;;5.30;;
64653;SDS011;51065;48.884;12.598;2023-03-23T03:38:20;12.85;;;5.50;;
64653;SDS011;51065;48.884;12.598;2023-03-23T03:40:46;13.10;;;5.15;;
64653;SDS011;51065;48.884;12.598;2023-03-23T03:43:12;12.60;;;5.35;;
64653;SDS011;51065;48.884;12.598;2023-03-23T03:45:37;11.95;;;5.22;;
64653;SDS011;51065;48.884;12.598;2023-03-23T03:48:03;11.82;;;5.13;;
64653;SDS011;51065;48.884;12.598;2023-03-23T03:50:29;13.63;;;5.22;;
64653;SDS011;51065;48.884;12.598;2023-03-23T03:52:55;13.25;;;5.40;;
64653;SDS011;51065;48.884;12.598;2023-03-23T03:55:20;12.35;;;4.70;;
64653;SDS011;51065;48.884;12.598;2023-03-23T03:57:47;14.75;;;5.82;;
64653;SDS011;51065;48.884;12.598;2023-03-23T04:00:13;12.23;;;5.10;;
64653;SDS011;51065;48.884;12.598;2023-03-23T04:02:43;13.02;;;5.43;;
64653;SDS011;51065;48.884;12.598;2023-03-23T04:05:15;12.02;;;5.65;;
64653;SDS011;51065;48.884;12.598;2023-03-23T04:07:42;11.55;;;5.28;;
64653;SDS011;51065;48.884;12.598;2023-03-23T04:10:08;13.45;;;5.78;;
64653;SDS011;51065;48.884;12.598;2023-03-23T04:12:36;13.23;;;5.50;;
64653;SDS011;51065;48.884;12.598;2023-03-23T04:15:02;13.15;;;5.50;;
64653;SDS011;51065;48.884;12.598;2023-03-23T04:17:28;12.82;;;5.78;;
64653;SDS011;51065;48.884;12.598;2023-03-23T04:19:54;14.48;;;5.63;;
64653;SDS011;51065;48.884;12.598;2023-03-23T04:22:25;15.32;;;5.88;;
64653;SDS011;51065;48.884;12.598;2023-03-23T04:24:55;11.93;;;5.63;;
64653;SDS011;51065;48.884;12.598;2023-03-23T04:27:26;11.73;;;5.18;;
64653;SDS011;51065;48.884;12.598;2023-03-23T04:29:54;11.82;;;5.32;;
64653;SDS011;51065;48.884;12.598;2023-03-23T04:32:21;18.63;;;5.30;;
64653;SDS011;51065;48.884;12.598;2023-03-23T04:34:46;13.23;;;5.60;;
64653;SDS011;51065;48.884;12.598;2023-03-23T04:37:13;11.25;;;5.13;;
64653;SDS011;51065;48.884;12.598;2023-03-23T04:39:39;12.30;;;5.30;;
64653;SDS011;51065;48.884;12.598;2023-03-23T04:42:04;13.50;;;5.65;;
64653;SDS011;51065;48.884;12.598;2023-03-23T04:44:30;15.10;;;6.20;;
64653;SDS011;51065;48.884;12.598;2023-03-23T04:46:57;14.63;;;6.10;;
64653;SDS011;51065;48.884;12.598;2023-03-23T04:49:26;14.23;;;5.93;;
64653;SDS011;51065;48.884;12.598;2023-03-23T04:51:51;11.77;;;5.60;;
64653;SDS011;51065;48.884;12.598;2023-03-23T04:54:17;14.60;;;6.57;;
64653;SDS011;51065;48.884;12.598;2023-03-23T04:56:43;11.25;;;5.88;;
64653;SDS011;51065;48.884;12.598;2023-03-23T04:59:08;14.98;;;6.28;;
64653;SDS011;51065;48.884;12.598;2023-03-23T05:01:34;13.07;;;5.50;;
64653;SDS011;51065;48.884;12.598;2023-03-23T05:04:02;13.63;;;5.55;;
64653;SDS011;51065;48.884;12.598;2023-03-23T05:06:28;16.10;;;6.18;;
64653;SDS011;51065;48.884;12.598;2023-03-23T05:08:53;14.13;;;5.97;;
64653;SDS011;51065;48.884;12.598;2023-03-23T05:11:19;10.88;;;5.72;;
64653;SDS011;51065;48.884;12.598;2023-03-23T05:13:45;13.75;;;6.03;;
64653;SDS011;51065;48.884;12.598;2023-03-23T05:16:11;15.88;;;6.15;;
64653;SDS011;51065;48.884;12.598;2023-03-23T05:18:37;13.77;;;6.18;;
64653;SDS011;51065;48.884;12.598;2023-03-23T05:21:02;14.30;;;6.03;;
64653;SDS011;51065;48.884;12.598;2023-03-23T05:23:29;16.65;;;6.50;;
64653;SDS011;51065;48.884;12.598;2023-03-23T05:25:56;13.07;;;5.88;;
64653;SDS011;51065;48.884;12.598;2023-03-23T05:28:25;12.60;;;5.65;;
64653;SDS011;51065;48.884;12.598;2023-03-23T05:30:51;13.93;;;6.22;;
64653;SDS011;51065;48.884;12.598;2023-03-23T05:33:18;15.30;;;6.20;;
64653;SDS011;51065;48.884;12.598;2023-03-23T05:35:45;16.35;;;6.18;;
64653;SDS011;51065;48.884;12.598;2023-03-23T05:38:12;14.00;;;5.40;;
64653;SDS011;51065;48.884;12.598;2023-03-23T05:40:39;13.82;;;5.63;;
64653;SDS011;51065;48.884;12.598;2023-03-23T05:43:06;15.13;;;6.00;;
64653;SDS011;51065;48.884;12.598;2023-03-23T05:45:32;13.52;;;6.07;;
64653;SDS011;51065;48.884;12.598;2023-03-23T05:47:58;14.73;;;5.88;;
64653;SDS011;51065;48.884;12.598;2023-03-23T05:50:24;13.10;;;6.22;;
64653;SDS011;51065;48.884;12.598;2023-03-23T05:52:50;12.25;;;5.15;;
64653;SDS011;51065;48.884;12.598;2023-03-23T05:55:16;14.68;;;5.82;;
64653;SDS011;51065;48.884;12.598;2023-03-23T05:57:41;15.05;;;5.97;;
64653;SDS011;51065;48.884;12.598;2023-03-23T06:00:07;15.13;;;6.22;;
64653;SDS011;51065;48.884;12.598;2023-03-23T06:02:44;11.65;;;5.68;;
64653;SDS011;51065;48.884;12.598;2023-03-23T06:05:13;14.48;;;6.30;;
64653;SDS011;51065;48.884;12.598;2023-03-23T06:07:40;14.18;;;6.13;;
64653;SDS011;51065;48.884;12.598;2023-03-23T06:10:06;12.68;;;5.47;;
64653;SDS011;51065;48.884;12.598;2023-03-23T06:12:34;13.25;;;5.90;;
64653;SDS011;51065;48.884;12.598;2023-03-23T06:15:00;14.50;;;5.22;;
64653;SDS011;51065;48.884;12.598;2023-03-23T06:17:25;14.30;;;5.53;;
64653;SDS011;51065;48.884;12.598;2023-03-23T06:19:51;12.52;;;5.70;;
64653;SDS011;51065;48.884;12.598;2023-03-23T06:22:17;14.13;;;6.07;;
64653;SDS011;51065;48.884;12.598;2023-03-23T06:24:43;14.02;;;6.15;;
64653;SDS011;51065;48.884;12.598;2023-03-23T06:27:09;14.43;;;6.00;;
64653;SDS011;51065;48.884;12.598;2023-03-23T06:29:36;15.32;;;6.50;;
64653;SDS011;51065;48.884;12.598;2023-03-23T06:32:02;13.88;;;5.97;;
64653;SDS011;51065;48.884;12.598;2023-03-23T06:34:29;14.13;;;6.65;;
64653;SDS011;51065;48.884;12.598;2023-03-23T06:36:57;11.82;;;5.82;;
64653;SDS011;51065;48.884;12.598;2023-03-23T06:39:23;15.68;;;5.43;;
64653;SDS011;51065;48.884;12.598;2023-03-23T06:41:49;14.05;;;5.88;;
64653;SDS011;51065;48.884;12.598;2023-03-23T06:44:15;12.50;;;5.80;;
64653;SDS011;51065;48.884;12.598;2023-03-23T06:46:41;14.73;;;5.88;;
64653;SDS011;51065;48.884;12.598;2023-03-23T06:49:07;15.60;;;5.95;;
64653;SDS011;51065;48.884;12.598;2023-03-23T06:51:33;13.13;;;5.80;;
64653;SDS011;51065;48.884;12.598;2023-03-23T06:54:00;13.02;;;6.05;;
64653;SDS011;51065;48.884;12.598;2023-03-23T06:56:26;15.98;;;6.00;;
64653;SDS011;51065;48.884;12.598;2023-03-23T06:58:51;14.93;;;6.30;;
64653;SDS011;51065;48.884;12.598;2023-03-23T07:01:17;14.50;;;6.43;;
64653;SDS011;51065;48.884;12.598;2023-03-23T07:03:43;14.23;;;6.22;;
64653;SDS011;51065;48.884;12.598;2023-03-23T07:06:08;14.73;;;6.47;;
64653;SDS011;51065;48.884;12.598;2023-03-23T07:08:34;15.50;;;6.03;;
64653;SDS011;51065;48.884;12.598;2023-03-23T07:11:01;14.00;;;5.85;;
64653;SDS011;51065;48.884;12.598;2023-03-23T07:13:27;16.95;;;6.45;;
64653;SDS011;51065;48.884;12.598;2023-03-23T07:15:53;15.60;;;6.68;;
64653;SDS011;51065;48.884;12.598;2023-03-23T07:18:19;12.25;;;5.93;;
64653;SDS011;51065;48.884;12.598;2023-03-23T07:20:51;14.18;;;6.03;;
64653;SDS011;51065;48.884;12.598;2023-03-23T07:23:18;15.52;;;6.18;;
64653;SDS011;51065;48.884;12.598;2023-03-23T07:25:44;13.80;;;5.95;;
64653;SDS011;51065;48.884;12.598;2023-03-23T07:28:12;14.48;;;6.60;;
64653;SDS011;51065;48.884;12.598;2023-03-23T07:30:38;15.82;;;6.55;;
64653;SDS011;51065;48.884;12.598;2023-03-23T07:33:04;14.52;;;6.63;;
64653;SDS011;51065;48.884;12.598;2023-03-23T07:35:31;13.10;;;6.70;;
64653;SDS011;51065;48.884;12.598;2023-03-23T07:37:57;14.38;;;6.38;;
64653;SDS011;51065;48.884;12.598;2023-03-23T07:40:23;16.58;;;6.80;;
64653;SDS011;51065;48.884;12.598;2023-03-23T07:42:56;15.38;;;6.10;;
64653;SDS011;51065;48.884;12.598;2023-03-23T07:45:37;16.65;;;6.50;;
64653;SDS011;51065;48.884;12.598;2023-03-23T07:48:02;15.80;;;6.38;;
64653;SDS011;51065;48.884;12.598;2023-03-23T07:50:28;17.20;;;6.13;;
64653;SDS011;51065;48.884;12.598;2023-03-23T07:52:54;13.98;;;5.80;;
64653;SDS011;51065;48.884;12.598;2023-03-23T07:55:20;13.23;;;5.82;;
64653;SDS011;51065;48.884;12.598;2023-03-23T07:57:47;13.88;;;6.15;;
64653;SDS011;51065;48.884;12.598;2023-03-23T08:00:14;14.48;;;5.95;;
64653;SDS011;51065;48.884;12.598;2023-03-23T08:02:44;18.90;;;8.45;;
64653;SDS011;51065;48.884;12.598;2023-03-23T08:05:16;16.00;;;6.80;;
64653;SDS011;51065;48.884;12.598;2023-03-23T08:07:47;13.77;;;6.00;;
64653;SDS011;51065;48.884;12.598;2023-03-23T08:10:14;15.43;;;5.75;;
64653;SDS011;51065;48.884;12.598;2023-03-23T08:12:42;14.10;;;5.93;;
64653;SDS011;51065;48.884;12.598;2023-03-23T08:15:11;14.02;;;6.32;;
64653;SDS011;51065;48.884;12.598;2023-03-23T08:17:38;14.95;;;5.88;;
64653;SDS011;51065;48.884;12.598;2023-03-23T08:20:05;14.40;;;6.05;;
64653;SDS011;51065;48.884;12.598;2023-03-23T08:22:37;15.80;;;6.00;;
64653;SDS011;51065;48.884;12.598;2023-03-23T08:25:08;14.57;;;6.20;;
64653;SDS011;51065;48.884;12.598;2023-03-23T08:27:35;13.40;;;5.88;;
64653;SDS011;51065;48.884;12.598;2023-03-23T08:30:02;14.45;;;6.63;;
64653;SDS011;51065;48.884;12.598;2023-03-23T08:32:30;13.65;;;5.70;;
64653;SDS011;51065;48.884;12.598;2023-03-23T08:34:56;14.00;;;6.32;;
64653;SDS011;51065;48.884;12.598;2023-03-23T08:37:22;13.35;;;6.03;;
64653;SDS011;51065;48.884;12.598;2023-03-23T08:39:50;12.02;;;5.50;;
64653;SDS011;51065;48.884;12.598;2023-03-23T08:42:17;11.88;;;5.50;;
64653;SDS011;51065;48.884;12.598;2023-03-23T08:44:43;12.50;;;5.25;;
64653;SDS011;51065;48.884;12.598;2023-03-23T08:47:09;10.50;;;5.10;;
64653;SDS011;51065;48.884;12.598;2023-03-23T08:49:35;15.25;;;5.90;;
64653;SDS011;51065;48.884;12.598;2023-03-23T08:52:01;13.15;;;5.65;;
64653;SDS011;51065;48.884;12.598;2023-03-23T08:54:28;13.43;;;5.43;;
64653;SDS011;51065;48.884;12.598;2023-03-23T08:56:55;14.30;;;4.93;;
64653;SDS011;51065;48.884;12.598;2023-03-23T08:59:20;17.02;;;5.65;;
64653;SDS011;51065;48.884;12.598;2023-03-23T09:01:46;13.32;;;5.80;;
64653;SDS011;51065;48.884;12.598;2023-03-23T09:04:12;12.95;;;6.07;;
64653;SDS011;51065;48.884;12.598;2023-03-23T09:06:39;12.85;;;5.25;;
64653;SDS011;51065;48.884;12.598;2023-03-23T09:09:05;12.10;;;5.47;;
64653;SDS011;51065;48.884;12.598;2023-03-23T09:11:34;13.05;;;5.18;;
64653;SDS011;51065;48.884;12.598;2023-03-23T09:14:00;14.43;;;5.43;;
64653;SDS011;51065;48.884;12.598;2023-03-23T09:16:32;10.95;;;4.85;;
64653;SDS011;51065;48.884;12.598;2023-03-23T09:19:19;10.40;;;5.25;;
64653;SDS011;51065;48.884;12.598;2023-03-23T09:21:45;15.70;;;6.28;;
64653;SDS011;51065;48.884;12.598;2023-03-23T09:24:11;13.90;;;5.63;;
64653;SDS011;51065;48.884;12.598;2023-03-23T09:26:36;12.82;;;6.10;;
64653;SDS011;51065;48.884;12.598;2023-03-23T09:29:02;10.68;;;5.10;;
64653;SDS011;51065;48.884;12.598;2023-03-23T09:31:28;11.93;;;5.28;;
64653;SDS011;51065;48.884;12.598;2023-03-23T09:33:56;14.73;;;5.38;;
64653;SDS011;51065;48.884;12.598;2023-03-23T09:36:23;12.90;;;4.65;;
64653;SDS011;51065;48.884;12.598;2023-03-23T09:38:51;13.50;;;5.97;;
64653;SDS011;51065;48.884;12.598;2023-03-23T09:44:04;11.82;;;5.18;;
64653;SDS011;51065;48.884;12.598;2023-03-23T09:46:56;10.77;;;5.00;;
64653;SDS011;51065;48.884;12.598;2023-03-23T09:49:47;13.63;;;6.45;;
64653;SDS011;51065;48.884;12.598;2023-03-23T09:52:17;10.40;;;4.80;;
64653;SDS011;51065;48.884;12.598;2023-03-23T09:54:46;10.93;;;4.88;;
64653;SDS011;51065;48.884;12.598;2023-03-23T09:57:25;10.68;;;4.43;;
64653;SDS011;51065;48.884;12.598;2023-03-23T09:59:54;10.75;;;4.70;;
64653;SDS011;51065;48.884;12.598;2023-03-23T10:02:28;10.10;;;4.50;;
64653;SDS011;51065;48.884;12.598;2023-03-23T10:07:41;10.23;;;4.63;;
64653;SDS011;51065;48.884;12.598;2023-03-23T10:10:08;11.52;;;5.22;;
64653;SDS011;51065;48.884;12.598;2023-03-23T10:12:45;12.90;;;6.38;;
64653;SDS011;51065;48.884;12.598;2023-03-23T10:15:17;12.38;;;5.78;;
64653;SDS011;51065;48.884;12.598;2023-03-23T10:18:02;12.23;;;5.97;;
64653;SDS011;51065;48.884;12.598;2023-03-23T10:20:42;11.60;;;5.35;;
64653;SDS011;51065;48.884;12.598;2023-03-23T10:26:04;12.60;;;5.55;;
64653;SDS011;51065;48.884;12.598;2023-03-23T10:28:59;8.60;;;4.65;;
64653;SDS011;51065;48.884;12.598;2023-03-23T10:31:47;13.52;;;6.00;;
64653;SDS011;51065;48.884;12.598;2023-03-23T10:34:32;9.95;;;4.90;;
64653;SDS011;51065;48.884;12.598;2023-03-23T10:37:15;10.57;;;4.90;;
64653;SDS011;51065;48.884;12.598;2023-03-23T10:39:46;10.60;;;4.88;;
64653;SDS011;51065;48.884;12.598;2023-03-23T10:42:32;12.13;;;5.20;;
64653;SDS011;51065;48.884;12.598;2023-03-23T10:44:59;21.23;;;10.70;;
64653;SDS011;51065;48.884;12.598;2023-03-23T10:47:36;11.25;;;5.20;;
64653;SDS011;51065;48.884;12.598;2023-03-23T10:50:05;10.60;;;5.20;;
64653;SDS011;51065;48.884;12.598;2023-03-23T10:52:37;12.10;;;5.05;;
64653;SDS011;51065;48.884;12.598;2023-03-23T10:55:12;11.18;;;5.07;;
64653;SDS011;51065;48.884;12.598;2023-03-23T10:57:44;13.02;;;4.70;;
64653;SDS011;51065;48.884;12.598;2023-03-23T11:02:45;10.50;;;4.47;;
64653;SDS011;51065;48.884;12.598;2023-03-23T11:05:23;12.68;;;5.72;;
64653;SDS011;51065;48.884;12.598;2023-03-23T11:07:53;15.55;;;7.10;;
64653;SDS011;51065;48.884;12.598;2023-03-23T11:10:25;9.93;;;4.82;;
64653;SDS011;51065;48.884;12.598;2023-03-23T11:12:54;12.15;;;5.10;;
64653;SDS011;51065;48.884;12.598;2023-03-23T11:15:30;10.43;;;4.82;;
64653;SDS011;51065;48.884;12.598;2023-03-23T11:18:00;10.93;;;5.22;;
64653;SDS011;51065;48.884;12.598;2023-03-23T11:20:34;13.48;;;4.97;;
64653;SDS011;51065;48.884;12.598;2023-03-23T11:23:05;11.45;;;4.78;;
64653;SDS011;51065;48.884;12.598;2023-03-23T11:28:36;9.48;;;4.75;;
64653;SDS011;51065;48.884;12.598;2023-03-23T11:31:06;8.90;;;4.07;;
64653;SDS011;51065;48.884;12.598;2023-03-23T11:33:36;12.00;;;4.78;;
64653;SDS011;51065;48.884;12.598;2023-03-23T11:36:05;10.15;;;4.57;;
64653;SDS011;51065;48.884;12.598;2023-03-23T11:38:33;9.57;;;4.65;;
64653;SDS011;51065;48.884;12.598;2023-03-23T11:40:59;9.30;;;4.20;;
64653;SDS011;51065;48.884;12.598;2023-03-23T11:43:25;10.75;;;4.70;;
64653;SDS011;51065;48.884;12.598;2023-03-23T11:51:30;8.63;;;3.63;;
64653;SDS011;51065;48.884;12.598;2023-03-23T11:54:15;6.90;;;3.65;;
64653;SDS011;51065;48.884;12.598;2023-03-23T11:56:48;7.80;;;3.30;;
64653;SDS011;51065;48.884;12.598;2023-03-23T11:59:18;7.78;;;3.40;;
64653;SDS011;51065;48.884;12.598;2023-03-23T12:01:53;7.32;;;3.05;;
64653;SDS011;51065;48.884;12.598;2023-03-23T12:07:33;11.05;;;2.00;;
64653;SDS011;51065;48.884;12.598;2023-03-23T12:10:22;4.97;;;2.20;;
64653;SDS011;51065;48.884;12.598;2023-03-23T12:13:13;10.15;;;2.17;;
64653;SDS011;51065;48.884;12.598;2023-03-23T12:15:51;8.00;;;2.15;;
64653;SDS011;51065;48.884;12.598;2023-03-23T12:18:47;7.20;;;1.88;;
64653;SDS011;51065;48.884;12.598;2023-03-23T12:24:23;5.80;;;1.95;;
64653;SDS011;51065;48.884;12.598;2023-03-23T12:27:01;6.15;;;2.17;;
64653;SDS011;51065;48.884;12.598;2023-03-23T12:43:17;5.00;;;1.77;;
64653;SDS011;51065;48.884;12.598;2023-03-23T12:48:46;5.13;;;1.55;;
64653;SDS011;51065;48.884;12.598;2023-03-23T12:51:39;4.15;;;1.65;;
64653;SDS011;51065;48.884;12.598;2023-03-23T12:56:53;3.40;;;1.52;;
64653;SDS011;51065;48.884;12.598;2023-03-23T13:02:06;3.45;;;1.80;;
64653;SDS011;51065;48.884;12.598;2023-03-23T13:05:00;3.78;;;1.60;;
64653;SDS011;51065;48.884;12.598;2023-03-23T13:07:33;5.38;;;1.50;;
64653;SDS011;51065;48.884;12.598;2023-03-23T13:12:38;3.53;;;1.77;;
64653;SDS011;51065;48.884;12.598;2023-03-23T13:18:08;2.38;;;1.15;;
64653;SDS011;51065;48.884;12.598;2023-03-23T13:20:48;4.50;;;1.52;;
64653;SDS011;51065;48.884;12.598;2023-03-23T13:28:23;2.05;;;1.33;;
64653;SDS011;51065;48.884;12.598;2023-03-23T13:31:14;3.08;;;1.60;;
64653;SDS011;51065;48.884;12.598;2023-03-23T13:33:46;2.40;;;1.30;;
64653;SDS011;51065;48.884;12.598;2023-03-23T13:36:15;2.95;;;1.70;;
64653;SDS011;51065;48.884;12.598;2023-03-23T13:38:50;2.85;;;1.75;;
64653;SDS011;51065;48.884;12.598;2023-03-23T13:41:17;3.40;;;1.60;;
64653;SDS011;51065;48.884;12.598;2023-03-23T13:43:45;5.25;;;1.70;;
64653;SDS011;51065;48.884;12.598;2023-03-23T13:46:29;4.55;;;2.03;;
64653;SDS011;51065;48.884;12.598;2023-03-23T13:49:04;4.10;;;1.20;;
64653;SDS011;51065;48.884;12.598;2023-03-23T13:51:47;4.18;;;1.30;;
64653;SDS011;51065;48.884;12.598;2023-03-23T13:56:52;2.53;;;1.30;;
64653;SDS011;51065;48.884;12.598;2023-03-23T14:01:51;2.22;;;1.30;;
64653;SDS011;51065;48.884;12.598;2023-03-23T14:04:18;5.78;;;1.48;;
64653;SDS011;51065;48.884;12.598;2023-03-23T14:06:48;3.80;;;1.38;;
64653;SDS011;51065;48.884;12.598;2023-03-23T14:09:17;2.55;;;1.20;;
64653;SDS011;51065;48.884;12.598;2023-03-23T14:11:55;3.38;;;1.35;;
64653;SDS011;51065;48.884;12.598;2023-03-23T14:14:38;2.15;;;1.42;;
64653;SDS011;51065;48.884;12.598;2023-03-23T14:17:22;3.45;;;1.50;;
64653;SDS011;51065;48.884;12.598;2023-03-23T14:19:54;4.85;;;1.48;;
64653;SDS011;51065;48.884;12.598;2023-03-23T14:22:25;6.95;;;1.30;;
64653;SDS011;51065;48.884;12.598;2023-03-23T14:24:59;3.28;;;1.10;;
64653;SDS011;51065;48.884;12.598;2023-03-23T14:27:39;3.70;;;1.38;;
64653;SDS011;51065;48.884;12.598;2023-03-23T14:30:07;4.47;;;1.42;;
64653;SDS011;51065;48.884;12.598;2023-03-23T14:32:37;1.67;;;1.00;;
64653;SDS011;51065;48.884;12.598;2023-03-23T14:35:05;6.88;;;1.30;;
64653;SDS011;51065;48.884;12.598;2023-03-23T14:37:40;2.95;;;1.40;;
64653;SDS011;51065;48.884;12.598;2023-03-23T14:40:05;2.58;;;1.33;;
64653;SDS011;51065;48.884;12.598;2023-03-23T14:42:40;6.80;;;1.60;;
64653;SDS011;51065;48.884;12.598;2023-03-23T14:45:07;3.75;;;1.40;;
64653;SDS011;51065;48.884;12.598;2023-03-23T14:47:40;2.42;;;1.17;;
64653;SDS011;51065;48.884;12.598;2023-03-23T14:53:00;2.40;;;1.08;;
64653;SDS011;51065;48.884;12.598;2023-03-23T14:55:47;4.10;;;1.50;;
64653;SDS011;51065;48.884;12.598;2023-03-23T14:58:15;2.70;;;1.40;;
64653;SDS011;51065;48.884;12.598;2023-03-23T15:00:43;6.93;;;1.73;;
64653;SDS011;51065;48.884;12.598;2023-03-23T15:03:17;7.25;;;2.20;;
64653;SDS011;51065;48.884;12.598;2023-03-23T15:05:45;13.43;;;2.20;;
64653;SDS011;51065;48.884;12.598;2023-03-23T15:08:22;5.13;;;1.92;;
64653;SDS011;51065;48.884;12.598;2023-03-23T15:11:03;8.98;;;2.05;;
64653;SDS011;51065;48.884;12.598;2023-03-23T15:13:36;2.65;;;1.60;;
64653;SDS011;51065;48.884;12.598;2023-03-23T15:18:38;2.72;;;1.42;;
64653;SDS011;51065;48.884;12.598;2023-03-23T15:21:09;4.78;;;1.70;;
64653;SDS011;51065;48.884;12.598;2023-03-23T15:23:40;5.75;;;1.67;;
64653;SDS011;51065;48.884;12.598;2023-03-23T15:26:12;2.58;;;1.30;;
64653;SDS011;51065;48.884;12.598;2023-03-23T15:29:10;10.27;;;2.42;;
64653;SDS011;51065;48.884;12.598;2023-03-23T15:31:42;4.15;;;1.55;;
64653;SDS011;51065;48.884;12.598;2023-03-23T15:34:12;4.78;;;1.85;;
64653;SDS011;51065;48.884;12.598;2023-03-23T15:37:15;6.05;;;1.70;;
64653;SDS011;51065;48.884;12.598;2023-03-23T15:39:45;2.90;;;1.40;;
64653;SDS011;51065;48.884;12.598;2023-03-23T15:42:21;5.65;;;2.13;;
64653;SDS011;51065;48.884;12.598;2023-03-23T15:44:56;3.00;;;1.70;;
64653;SDS011;51065;48.884;12.598;2023-03-23T15:50:13;4.63;;;1.55;;
64653;SDS011;51065;48.884;12.598;2023-03-23T15:52:40;4.55;;;1.73;;
64653;SDS011;51065;48.884;12.598;2023-03-23T15:55:20;5.65;;;1.90;;
64653;SDS011;51065;48.884;12.598;2023-03-23T15:57:51;7.38;;;1.85;;
64653;SDS011;51065;48.884;12.598;2023-03-23T16:00:19;4.28;;;1.48;;
64653;SDS011;51065;48.884;12.598;2023-03-23T16:02:46;4.22;;;1.40;;
64653;SDS011;51065;48.884;12.598;2023-03-23T16:05:15;4.85;;;1.60;;